Terminal Aerodrome Forecast
Issued by NWS

Home | Current Version | Previous Version | Text Only | Print | Product List | Glossary Off
Versions: 1 2 3 4 5 6 7 8 9 10 11 12 13 14 15

000
FTUS43 KGRB 072039 AAA
TAFRHI
TAF AMD
KRHI 072039Z 0721/0818 26015G25KT 5SM -SN OVC022
      TEMPO 0721/0801 2SM -SHSN BKN018
     FM080100 25013G21KT P6SM -SN OVC020
     FM081000 29013G20KT P6SM -SN OVC016
     FM081200 30013G22KT 3SM -SHSN BKN012 OVC020 PROB30 0812/0818
      1SM -SHSN BKN010=

USA.gov is the U.S. government's official web portal to all federal, state and local government web resources and services.